Aviation Digital Data Service (ADDS)

Output produced by TAFs form (1205 UTC 01 October 2016)
found at http://www.aviationweather.gov/adds/tafs/
 
KGFL 011123Z 0112/0212 01008KT P6SM OVC040 
     TEMPO 0112/0113 5SM -SHRA BR OVC020 
     FM011800 03007KT 6SM -DZ BR OVC025 
     FM020300 04005KT 3SM -RA BR OVC020 
     FM020800 02002KT 2SM -RA BR OVC005